sensor_id;sensor_type;location;lat;lon;timestamp;P1;durP1;ratioP1;P2;durP2;ratioP2
20044;SDS011;10183;47.808;9.476;2023-11-21T00:02:24;24.63;;;22.60;;
20044;SDS011;10183;47.808;9.476;2023-11-21T00:05:13;23.40;;;21.70;;
20044;SDS011;10183;47.808;9.476;2023-11-21T00:07:59;23.00;;;20.70;;
20044;SDS011;10183;47.808;9.476;2023-11-21T00:10:45;21.63;;;19.83;;
20044;SDS011;10183;47.808;9.476;2023-11-21T00:13:32;21.60;;;20.10;;
20044;SDS011;10183;47.808;9.476;2023-11-21T00:16:18;24.07;;;22.30;;
20044;SDS011;10183;47.808;9.476;2023-11-21T00:19:04;20.50;;;19.10;;
20044;SDS011;10183;47.808;9.476;2023-11-21T00:21:50;21.33;;;19.93;;
20044;SDS011;10183;47.808;9.476;2023-11-21T00:24:36;19.80;;;18.30;;
20044;SDS011;10183;47.808;9.476;2023-11-21T00:27:22;19.43;;;18.03;;
20044;SDS011;10183;47.808;9.476;2023-11-21T00:30:08;18.83;;;17.53;;
20044;SDS011;10183;47.808;9.476;2023-11-21T00:32:54;18.17;;;16.90;;
20044;SDS011;10183;47.808;9.476;2023-11-21T00:35:40;17.80;;;16.60;;
20044;SDS011;10183;47.808;9.476;2023-11-21T00:38:26;27.73;;;15.13;;
20044;SDS011;10183;47.808;9.476;2023-11-21T00:41:12;15.60;;;14.60;;
20044;SDS011;10183;47.808;9.476;2023-11-21T00:43:58;20.83;;;16.83;;
20044;SDS011;10183;47.808;9.476;2023-11-21T00:46:44;16.00;;;15.00;;
20044;SDS011;10183;47.808;9.476;2023-11-21T00:49:31;15.93;;;14.93;;
20044;SDS011;10183;47.808;9.476;2023-11-21T00:52:17;17.43;;;16.23;;
20044;SDS011;10183;47.808;9.476;2023-11-21T00:55:07;16.07;;;15.07;;
20044;SDS011;10183;47.808;9.476;2023-11-21T00:57:53;16.03;;;15.03;;
20044;SDS011;10183;47.808;9.476;2023-11-21T01:00:39;15.03;;;14.13;;
20044;SDS011;10183;47.808;9.476;2023-11-21T01:03:25;14.80;;;13.90;;
20044;SDS011;10183;47.808;9.476;2023-11-21T01:06:11;14.70;;;13.80;;
20044;SDS011;10183;47.808;9.476;2023-11-21T01:08:57;16.60;;;15.60;;
20044;SDS011;10183;47.808;9.476;2023-11-21T01:11:43;15.77;;;14.87;;
20044;SDS011;10183;47.808;9.476;2023-11-21T01:14:29;16.00;;;15.00;;
20044;SDS011;10183;47.808;9.476;2023-11-21T01:17:15;17.83;;;16.67;;
20044;SDS011;10183;47.808;9.476;2023-11-21T01:20:01;17.83;;;16.63;;
20044;SDS011;10183;47.808;9.476;2023-11-21T01:22:48;17.17;;;16.00;;
20044;SDS011;10183;47.808;9.476;2023-11-21T01:25:34;16.60;;;15.50;;
20044;SDS011;10183;47.808;9.476;2023-11-21T01:28:21;18.23;;;16.90;;
20044;SDS011;10183;47.808;9.476;2023-11-21T01:31:07;18.20;;;16.83;;
20044;SDS011;10183;47.808;9.476;2023-11-21T01:33:53;17.20;;;16.00;;
20044;SDS011;10183;47.808;9.476;2023-11-21T01:36:39;17.70;;;16.37;;
20044;SDS011;10183;47.808;9.476;2023-11-21T01:39:25;16.50;;;15.50;;
20044;SDS011;10183;47.808;9.476;2023-11-21T01:42:12;17.80;;;16.70;;
20044;SDS011;10183;47.808;9.476;2023-11-21T01:44:58;18.37;;;16.77;;
20044;SDS011;10183;47.808;9.476;2023-11-21T01:47:44;16.60;;;15.60;;
20044;SDS011;10183;47.808;9.476;2023-11-21T01:50:31;14.17;;;13.33;;
20044;SDS011;10183;47.808;9.476;2023-11-21T01:53:17;15.73;;;14.73;;
20044;SDS011;10183;47.808;9.476;2023-11-21T01:56:03;15.77;;;14.80;;
20044;SDS011;10183;47.808;9.476;2023-11-21T01:58:50;21.27;;;13.63;;
20044;SDS011;10183;47.808;9.476;2023-11-21T02:01:36;15.60;;;14.70;;
20044;SDS011;10183;47.808;9.476;2023-11-21T02:04:22;15.90;;;14.73;;
20044;SDS011;10183;47.808;9.476;2023-11-21T02:07:08;15.60;;;14.43;;
20044;SDS011;10183;47.808;9.476;2023-11-21T02:09:55;15.87;;;14.80;;
20044;SDS011;10183;47.808;9.476;2023-11-21T02:12:41;16.50;;;15.40;;
20044;SDS011;10183;47.808;9.476;2023-11-21T02:15:27;16.97;;;15.67;;
20044;SDS011;10183;47.808;9.476;2023-11-21T02:18:14;17.60;;;16.07;;
20044;SDS011;10183;47.808;9.476;2023-11-21T02:21:01;17.13;;;15.97;;
20044;SDS011;10183;47.808;9.476;2023-11-21T02:23:49;17.20;;;16.00;;
20044;SDS011;10183;47.808;9.476;2023-11-21T02:26:36;16.43;;;15.53;;
20044;SDS011;10183;47.808;9.476;2023-11-21T02:29:22;18.20;;;16.23;;
20044;SDS011;10183;47.808;9.476;2023-11-21T02:32:13;16.23;;;15.13;;
20044;SDS011;10183;47.808;9.476;2023-11-21T02:34:59;16.30;;;15.30;;
20044;SDS011;10183;47.808;9.476;2023-11-21T02:37:50;16.97;;;15.93;;
20044;SDS011;10183;47.808;9.476;2023-11-21T02:40:36;15.23;;;14.33;;
20044;SDS011;10183;47.808;9.476;2023-11-21T02:43:22;16.00;;;14.77;;
20044;SDS011;10183;47.808;9.476;2023-11-21T02:46:08;16.93;;;15.53;;
20044;SDS011;10183;47.808;9.476;2023-11-21T02:48:54;16.83;;;15.57;;
20044;SDS011;10183;47.808;9.476;2023-11-21T02:51:40;16.00;;;15.10;;
20044;SDS011;10183;47.808;9.476;2023-11-21T02:54:26;16.33;;;15.30;;
20044;SDS011;10183;47.808;9.476;2023-11-21T02:57:12;17.07;;;15.90;;
20044;SDS011;10183;47.808;9.476;2023-11-21T02:59:59;15.13;;;14.33;;
20044;SDS011;10183;47.808;9.476;2023-11-21T03:02:45;20.33;;;18.93;;
20044;SDS011;10183;47.808;9.476;2023-11-21T03:05:32;18.23;;;16.90;;
20044;SDS011;10183;47.808;9.476;2023-11-21T03:08:20;16.90;;;15.80;;
20044;SDS011;10183;47.808;9.476;2023-11-21T03:11:06;17.50;;;16.27;;
20044;SDS011;10183;47.808;9.476;2023-11-21T03:13:53;17.10;;;16.00;;
20044;SDS011;10183;47.808;9.476;2023-11-21T03:16:39;18.30;;;17.10;;
20044;SDS011;10183;47.808;9.476;2023-11-21T03:19:26;17.27;;;16.27;;
20044;SDS011;10183;47.808;9.476;2023-11-21T03:22:12;15.37;;;14.37;;
20044;SDS011;10183;47.808;9.476;2023-11-21T03:24:58;15.17;;;14.10;;
20044;SDS011;10183;47.808;9.476;2023-11-21T03:27:44;14.60;;;13.70;;
20044;SDS011;10183;47.808;9.476;2023-11-21T03:30:30;14.40;;;13.53;;
20044;SDS011;10183;47.808;9.476;2023-11-21T03:33:16;14.30;;;13.40;;
20044;SDS011;10183;47.808;9.476;2023-11-21T03:36:02;14.00;;;13.20;;
20044;SDS011;10183;47.808;9.476;2023-11-21T03:38:49;17.10;;;15.67;;
20044;SDS011;10183;47.808;9.476;2023-11-21T03:41:35;17.73;;;16.47;;
20044;SDS011;10183;47.808;9.476;2023-11-21T03:44:21;19.90;;;18.40;;
20044;SDS011;10183;47.808;9.476;2023-11-21T03:47:07;17.30;;;16.20;;
20044;SDS011;10183;47.808;9.476;2023-11-21T03:49:53;17.93;;;16.50;;
20044;SDS011;10183;47.808;9.476;2023-11-21T03:52:39;16.60;;;15.60;;
20044;SDS011;10183;47.808;9.476;2023-11-21T03:55:25;17.47;;;16.17;;
20044;SDS011;10183;47.808;9.476;2023-11-21T03:58:11;16.97;;;15.97;;
20044;SDS011;10183;47.808;9.476;2023-11-21T04:00:57;14.70;;;13.90;;
20044;SDS011;10183;47.808;9.476;2023-11-21T04:03:43;16.60;;;14.83;;
20044;SDS011;10183;47.808;9.476;2023-11-21T04:06:29;14.63;;;13.83;;
20044;SDS011;10183;47.808;9.476;2023-11-21T04:09:15;15.27;;;14.17;;
20044;SDS011;10183;47.808;9.476;2023-11-21T04:12:01;14.87;;;13.87;;
20044;SDS011;10183;47.808;9.476;2023-11-21T04:14:48;15.47;;;14.17;;
20044;SDS011;10183;47.808;9.476;2023-11-21T04:17:34;16.03;;;14.50;;
20044;SDS011;10183;47.808;9.476;2023-11-21T04:20:20;14.43;;;13.50;;
20044;SDS011;10183;47.808;9.476;2023-11-21T04:23:08;13.00;;;12.20;;
20044;SDS011;10183;47.808;9.476;2023-11-21T04:25:55;14.20;;;13.30;;
20044;SDS011;10183;47.808;9.476;2023-11-21T04:28:42;13.80;;;13.10;;
20044;SDS011;10183;47.808;9.476;2023-11-21T04:31:28;14.37;;;13.03;;
20044;SDS011;10183;47.808;9.476;2023-11-21T04:34:14;13.23;;;12.43;;
20044;SDS011;10183;47.808;9.476;2023-11-21T04:37:00;13.20;;;12.50;;
20044;SDS011;10183;47.808;9.476;2023-11-21T04:39:46;13.20;;;12.50;;
20044;SDS011;10183;47.808;9.476;2023-11-21T04:42:35;12.90;;;12.17;;
20044;SDS011;10183;47.808;9.476;2023-11-21T04:45:22;13.30;;;12.60;;
20044;SDS011;10183;47.808;9.476;2023-11-21T04:48:08;14.07;;;13.27;;
20044;SDS011;10183;47.808;9.476;2023-11-21T04:50:55;15.00;;;14.00;;
20044;SDS011;10183;47.808;9.476;2023-11-21T04:53:41;15.50;;;14.60;;
20044;SDS011;10183;47.808;9.476;2023-11-21T04:56:27;16.20;;;15.20;;
20044;SDS011;10183;47.808;9.476;2023-11-21T04:59:13;12.70;;;12.00;;
20044;SDS011;10183;47.808;9.476;2023-11-21T05:01:59;13.70;;;12.93;;
20044;SDS011;10183;47.808;9.476;2023-11-21T05:04:45;23.37;;;13.83;;
20044;SDS011;10183;47.808;9.476;2023-11-21T05:07:32;14.53;;;13.63;;
20044;SDS011;10183;47.808;9.476;2023-11-21T05:10:18;13.97;;;13.27;;
20044;SDS011;10183;47.808;9.476;2023-11-21T05:13:04;13.70;;;13.00;;
20044;SDS011;10183;47.808;9.476;2023-11-21T05:15:50;13.07;;;12.27;;
20044;SDS011;10183;47.808;9.476;2023-11-21T05:18:36;12.10;;;11.50;;
20044;SDS011;10183;47.808;9.476;2023-11-21T05:21:22;13.33;;;12.57;;
20044;SDS011;10183;47.808;9.476;2023-11-21T05:24:08;12.80;;;11.93;;
20044;SDS011;10183;47.808;9.476;2023-11-21T05:26:54;12.30;;;11.70;;
20044;SDS011;10183;47.808;9.476;2023-11-21T05:29:41;14.50;;;13.70;;
20044;SDS011;10183;47.808;9.476;2023-11-21T05:32:27;11.73;;;11.13;;
20044;SDS011;10183;47.808;9.476;2023-11-21T05:35:13;14.50;;;13.67;;
20044;SDS011;10183;47.808;9.476;2023-11-21T05:38:01;15.20;;;14.30;;
20044;SDS011;10183;47.808;9.476;2023-11-21T05:40:47;15.10;;;14.30;;
20044;SDS011;10183;47.808;9.476;2023-11-21T05:43:33;15.40;;;14.50;;
20044;SDS011;10183;47.808;9.476;2023-11-21T05:46:20;14.27;;;13.47;;
20044;SDS011;10183;47.808;9.476;2023-11-21T05:49:07;16.33;;;15.20;;
20044;SDS011;10183;47.808;9.476;2023-11-21T05:51:54;16.47;;;15.47;;
20044;SDS011;10183;47.808;9.476;2023-11-21T05:54:40;15.50;;;14.60;;
20044;SDS011;10183;47.808;9.476;2023-11-21T05:57:26;14.20;;;13.50;;
20044;SDS011;10183;47.808;9.476;2023-11-21T06:00:13;13.80;;;13.10;;
20044;SDS011;10183;47.808;9.476;2023-11-21T06:03:10;12.57;;;11.87;;
20044;SDS011;10183;47.808;9.476;2023-11-21T06:05:57;13.70;;;13.00;;
20044;SDS011;10183;47.808;9.476;2023-11-21T06:08:43;15.53;;;14.60;;
20044;SDS011;10183;47.808;9.476;2023-11-21T06:11:29;15.30;;;14.50;;
20044;SDS011;10183;47.808;9.476;2023-11-21T06:14:15;16.50;;;15.60;;
20044;SDS011;10183;47.808;9.476;2023-11-21T06:17:03;16.70;;;15.80;;
20044;SDS011;10183;47.808;9.476;2023-11-21T06:19:49;17.87;;;17.03;;
20044;SDS011;10183;47.808;9.476;2023-11-21T06:22:36;18.90;;;17.97;;
20044;SDS011;10183;47.808;9.476;2023-11-21T06:25:23;16.27;;;15.47;;
20044;SDS011;10183;47.808;9.476;2023-11-21T06:28:08;15.90;;;15.10;;
20044;SDS011;10183;47.808;9.476;2023-11-21T06:30:55;15.70;;;14.70;;
20044;SDS011;10183;47.808;9.476;2023-11-21T06:33:43;11.10;;;10.47;;
20044;SDS011;10183;47.808;9.476;2023-11-21T06:36:29;12.27;;;11.67;;
20044;SDS011;10183;47.808;9.476;2023-11-21T06:39:15;12.73;;;12.03;;
20044;SDS011;10183;47.808;9.476;2023-11-21T06:42:02;13.03;;;12.33;;
20044;SDS011;10183;47.808;9.476;2023-11-21T06:44:49;12.90;;;12.30;;
20044;SDS011;10183;47.808;9.476;2023-11-21T06:47:39;12.57;;;11.97;;
20044;SDS011;10183;47.808;9.476;2023-11-21T06:50:25;18.77;;;17.27;;
20044;SDS011;10183;47.808;9.476;2023-11-21T06:53:11;17.73;;;16.23;;
20044;SDS011;10183;47.808;9.476;2023-11-21T06:55:57;18.27;;;16.77;;
20044;SDS011;10183;47.808;9.476;2023-11-21T06:58:43;16.73;;;15.43;;
20044;SDS011;10183;47.808;9.476;2023-11-21T07:01:31;16.57;;;15.17;;
20044;SDS011;10183;47.808;9.476;2023-11-21T07:04:19;15.80;;;14.60;;
20044;SDS011;10183;47.808;9.476;2023-11-21T07:07:06;16.00;;;14.70;;
20044;SDS011;10183;47.808;9.476;2023-11-21T07:09:55;15.77;;;14.57;;
20044;SDS011;10183;47.808;9.476;2023-11-21T07:12:41;16.90;;;15.90;;
20044;SDS011;10183;47.808;9.476;2023-11-21T07:15:27;15.63;;;14.73;;
20044;SDS011;10183;47.808;9.476;2023-11-21T07:18:13;11.30;;;10.80;;
20044;SDS011;10183;47.808;9.476;2023-11-21T07:20:59;11.97;;;11.27;;
20044;SDS011;10183;47.808;9.476;2023-11-21T07:23:45;13.53;;;12.53;;
20044;SDS011;10183;47.808;9.476;2023-11-21T07:26:31;12.40;;;11.60;;
20044;SDS011;10183;47.808;9.476;2023-11-21T07:29:18;11.73;;;11.03;;
20044;SDS011;10183;47.808;9.476;2023-11-21T07:32:04;11.93;;;11.13;;
20044;SDS011;10183;47.808;9.476;2023-11-21T07:34:51;11.80;;;11.10;;
20044;SDS011;10183;47.808;9.476;2023-11-21T07:37:36;13.47;;;12.50;;
20044;SDS011;10183;47.808;9.476;2023-11-21T07:40:22;12.90;;;11.97;;
20044;SDS011;10183;47.808;9.476;2023-11-21T07:43:08;12.77;;;12.07;;
20044;SDS011;10183;47.808;9.476;2023-11-21T07:45:55;13.50;;;12.60;;
20044;SDS011;10183;47.808;9.476;2023-11-21T07:48:42;15.10;;;14.10;;
20044;SDS011;10183;47.808;9.476;2023-11-21T07:51:28;15.47;;;14.47;;
20044;SDS011;10183;47.808;9.476;2023-11-21T07:54:14;15.50;;;14.47;;
20044;SDS011;10183;47.808;9.476;2023-11-21T07:57:01;17.13;;;15.93;;
20044;SDS011;10183;47.808;9.476;2023-11-21T07:59:49;20.70;;;19.20;;
20044;SDS011;10183;47.808;9.476;2023-11-21T08:02:35;19.20;;;17.90;;
20044;SDS011;10183;47.808;9.476;2023-11-21T08:05:21;21.47;;;19.80;;
20044;SDS011;10183;47.808;9.476;2023-11-21T08:08:07;22.07;;;20.57;;
20044;SDS011;10183;47.808;9.476;2023-11-21T08:10:53;18.63;;;17.33;;
20044;SDS011;10183;47.808;9.476;2023-11-21T08:13:42;19.50;;;18.20;;
20044;SDS011;10183;47.808;9.476;2023-11-21T08:16:28;21.77;;;20.27;;
20044;SDS011;10183;47.808;9.476;2023-11-21T08:19:14;20.53;;;19.03;;
20044;SDS011;10183;47.808;9.476;2023-11-21T08:22:01;21.27;;;19.63;;
20044;SDS011;10183;47.808;9.476;2023-11-21T08:24:48;21.63;;;20.13;;
20044;SDS011;10183;47.808;9.476;2023-11-21T08:27:35;23.30;;;21.60;;
20044;SDS011;10183;47.808;9.476;2023-11-21T08:30:21;22.77;;;21.07;;
20044;SDS011;10183;47.808;9.476;2023-11-21T08:33:09;23.77;;;21.50;;
20044;SDS011;10183;47.808;9.476;2023-11-21T08:35:56;22.87;;;21.27;;
20044;SDS011;10183;47.808;9.476;2023-11-21T08:38:42;21.70;;;20.20;;
20044;SDS011;10183;47.808;9.476;2023-11-21T08:41:28;22.63;;;21.03;;
20044;SDS011;10183;47.808;9.476;2023-11-21T08:44:14;20.47;;;18.97;;
20044;SDS011;10183;47.808;9.476;2023-11-21T08:47:01;22.10;;;20.40;;
20044;SDS011;10183;47.808;9.476;2023-11-21T08:49:48;21.73;;;20.03;;
20044;SDS011;10183;47.808;9.476;2023-11-21T08:52:38;18.13;;;16.63;;
20044;SDS011;10183;47.808;9.476;2023-11-21T08:55:25;18.00;;;16.50;;
20044;SDS011;10183;47.808;9.476;2023-11-21T08:58:13;22.07;;;20.33;;
20044;SDS011;10183;47.808;9.476;2023-11-21T09:00:58;22.57;;;20.83;;
20044;SDS011;10183;47.808;9.476;2023-11-21T09:03:44;18.73;;;17.23;;
20044;SDS011;10183;47.808;9.476;2023-11-21T09:06:31;29.07;;;26.77;;
20044;SDS011;10183;47.808;9.476;2023-11-21T09:09:16;27.37;;;25.27;;
20044;SDS011;10183;47.808;9.476;2023-11-21T09:12:03;27.57;;;25.47;;
20044;SDS011;10183;47.808;9.476;2023-11-21T09:14:49;26.53;;;24.53;;
20044;SDS011;10183;47.808;9.476;2023-11-21T09:17:36;29.53;;;27.23;;
20044;SDS011;10183;47.808;9.476;2023-11-21T09:20:22;22.67;;;20.87;;
20044;SDS011;10183;47.808;9.476;2023-11-21T09:23:08;18.80;;;17.30;;
20044;SDS011;10183;47.808;9.476;2023-11-21T09:25:54;17.43;;;16.03;;
20044;SDS011;10183;47.808;9.476;2023-11-21T09:28:43;17.67;;;16.27;;
20044;SDS011;10183;47.808;9.476;2023-11-21T09:31:32;17.53;;;16.07;;
20044;SDS011;10183;47.808;9.476;2023-11-21T09:34:19;18.77;;;17.17;;
20044;SDS011;10183;47.808;9.476;2023-11-21T09:37:06;21.80;;;19.90;;
20044;SDS011;10183;47.808;9.476;2023-11-21T09:39:53;20.97;;;19.27;;
20044;SDS011;10183;47.808;9.476;2023-11-21T09:42:40;18.37;;;16.57;;
20044;SDS011;10183;47.808;9.476;2023-11-21T09:45:34;22.17;;;20.07;;
20044;SDS011;10183;47.808;9.476;2023-11-21T09:48:21;18.90;;;17.30;;
20044;SDS011;10183;47.808;9.476;2023-11-21T09:51:10;16.90;;;15.30;;
20044;SDS011;10183;47.808;9.476;2023-11-21T09:53:56;20.27;;;18.47;;
20044;SDS011;10183;47.808;9.476;2023-11-21T09:56:44;20.03;;;18.20;;
20044;SDS011;10183;47.808;9.476;2023-11-21T09:59:31;21.77;;;19.57;;
20044;SDS011;10183;47.808;9.476;2023-11-21T10:02:18;25.23;;;22.90;;
20044;SDS011;10183;47.808;9.476;2023-11-21T10:05:06;36.23;;;32.67;;
20044;SDS011;10183;47.808;9.476;2023-11-21T10:07:55;39.60;;;35.40;;
20044;SDS011;10183;47.808;9.476;2023-11-21T10:10:43;44.63;;;40.07;;
20044;SDS011;10183;47.808;9.476;2023-11-21T10:13:31;29.93;;;27.03;;
20044;SDS011;10183;47.808;9.476;2023-11-21T10:16:18;41.77;;;37.27;;
20044;SDS011;10183;47.808;9.476;2023-11-21T10:19:09;27.93;;;25.53;;
20044;SDS011;10183;47.808;9.476;2023-11-21T10:21:56;31.30;;;28.50;;
20044;SDS011;10183;47.808;9.476;2023-11-21T10:24:45;28.37;;;25.50;;
20044;SDS011;10183;47.808;9.476;2023-11-21T10:27:31;52.07;;;46.37;;
20044;SDS011;10183;47.808;9.476;2023-11-21T10:30:17;59.27;;;50.53;;
20044;SDS011;10183;47.808;9.476;2023-11-21T10:33:07;44.20;;;39.43;;
20044;SDS011;10183;47.808;9.476;2023-11-21T10:35:56;34.60;;;31.00;;
20044;SDS011;10183;47.808;9.476;2023-11-21T10:38:42;28.73;;;25.83;;
20044;SDS011;10183;47.808;9.476;2023-11-21T10:41:29;29.60;;;26.73;;
20044;SDS011;10183;47.808;9.476;2023-11-21T10:44:16;29.67;;;26.87;;
20044;SDS011;10183;47.808;9.476;2023-11-21T10:47:06;31.00;;;28.30;;
20044;SDS011;10183;47.808;9.476;2023-11-21T10:49:57;30.33;;;27.83;;
20044;SDS011;10183;47.808;9.476;2023-11-21T10:52:45;28.53;;;26.13;;
20044;SDS011;10183;47.808;9.476;2023-11-21T10:55:33;30.47;;;27.97;;
20044;SDS011;10183;47.808;9.476;2023-11-21T10:58:20;30.70;;;28.07;;
20044;SDS011;10183;47.808;9.476;2023-11-21T11:01:06;33.23;;;30.33;;
20044;SDS011;10183;47.808;9.476;2023-11-21T11:03:53;30.33;;;27.63;;
20044;SDS011;10183;47.808;9.476;2023-11-21T11:06:40;30.93;;;28.07;;
20044;SDS011;10183;47.808;9.476;2023-11-21T11:09:31;30.23;;;27.43;;
20044;SDS011;10183;47.808;9.476;2023-11-21T11:12:20;26.60;;;24.30;;
20044;SDS011;10183;47.808;9.476;2023-11-21T11:15:07;27.90;;;25.50;;
20044;SDS011;10183;47.808;9.476;2023-11-21T11:17:54;29.30;;;26.80;;
20044;SDS011;10183;47.808;9.476;2023-11-21T11:20:43;22.80;;;20.90;;
20044;SDS011;10183;47.808;9.476;2023-11-21T11:24:08;23.20;;;21.30;;
20044;SDS011;10183;47.808;9.476;2023-11-21T11:39:29;26.80;;;24.50;;
20044;SDS011;10183;47.808;9.476;2023-11-21T11:42:18;24.10;;;22.03;;
20044;SDS011;10183;47.808;9.476;2023-11-21T11:45:17;28.27;;;25.87;;
20044;SDS011;10183;47.808;9.476;2023-11-21T11:48:06;30.10;;;27.70;;
20044;SDS011;10183;47.808;9.476;2023-11-21T11:51:02;29.23;;;26.73;;
20044;SDS011;10183;47.808;9.476;2023-11-21T11:53:55;28.93;;;26.57;;
20044;SDS011;10183;47.808;9.476;2023-11-21T11:56:41;27.93;;;25.53;;
20044;SDS011;10183;47.808;9.476;2023-11-21T11:59:27;23.77;;;21.77;;
20044;SDS011;10183;47.808;9.476;2023-11-21T12:02:13;24.93;;;22.83;;
20044;SDS011;10183;47.808;9.476;2023-11-21T12:05:00;24.87;;;22.77;;
20044;SDS011;10183;47.808;9.476;2023-11-21T12:10:38;22.37;;;20.57;;
20044;SDS011;10183;47.808;9.476;2023-11-21T12:13:25;32.40;;;29.60;;
20044;SDS011;10183;47.808;9.476;2023-11-21T12:16:13;39.67;;;35.97;;
20044;SDS011;10183;47.808;9.476;2023-11-21T12:18:59;41.77;;;37.50;;
20044;SDS011;10183;47.808;9.476;2023-11-21T12:21:45;27.33;;;24.87;;
20044;SDS011;10183;47.808;9.476;2023-11-21T12:24:32;22.50;;;20.50;;
20044;SDS011;10183;47.808;9.476;2023-11-21T12:27:18;21.30;;;19.40;;
20044;SDS011;10183;47.808;9.476;2023-11-21T12:30:06;20.80;;;19.00;;
20044;SDS011;10183;47.808;9.476;2023-11-21T12:32:59;20.40;;;18.70;;
20044;SDS011;10183;47.808;9.476;2023-11-21T12:35:49;31.97;;;28.97;;
20044;SDS011;10183;47.808;9.476;2023-11-21T12:38:35;33.20;;;29.80;;
20044;SDS011;10183;47.808;9.476;2023-11-21T12:41:21;23.50;;;21.10;;
20044;SDS011;10183;47.808;9.476;2023-11-21T12:44:12;31.27;;;28.07;;
20044;SDS011;10183;47.808;9.476;2023-11-21T12:47:00;22.50;;;20.30;;
20044;SDS011;10183;47.808;9.476;2023-11-21T12:49:46;24.17;;;21.77;;
20044;SDS011;10183;47.808;9.476;2023-11-21T12:52:34;22.10;;;20.10;;
20044;SDS011;10183;47.808;9.476;2023-11-21T12:55:21;21.17;;;19.27;;
20044;SDS011;10183;47.808;9.476;2023-11-21T12:58:08;24.43;;;22.43;;
20044;SDS011;10183;47.808;9.476;2023-11-21T13:00:55;19.83;;;18.13;;
20044;SDS011;10183;47.808;9.476;2023-11-21T13:03:48;35.27;;;31.87;;
20044;SDS011;10183;47.808;9.476;2023-11-21T13:06:37;24.63;;;21.10;;
20044;SDS011;10183;47.808;9.476;2023-11-21T13:09:26;36.83;;;33.20;;
20044;SDS011;10183;47.808;9.476;2023-11-21T13:12:13;32.60;;;29.30;;
20044;SDS011;10183;47.808;9.476;2023-11-21T13:15:04;28.30;;;25.30;;
20044;SDS011;10183;47.808;9.476;2023-11-21T13:17:52;30.90;;;27.67;;
20044;SDS011;10183;47.808;9.476;2023-11-21T13:20:39;25.67;;;23.07;;
20044;SDS011;10183;47.808;9.476;2023-11-21T13:23:26;27.50;;;24.80;;
20044;SDS011;10183;47.808;9.476;2023-11-21T13:26:12;29.87;;;26.90;;
20044;SDS011;10183;47.808;9.476;2023-11-21T13:29:00;28.97;;;26.23;;
20044;SDS011;10183;47.808;9.476;2023-11-21T13:31:50;27.77;;;25.17;;
20044;SDS011;10183;47.808;9.476;2023-11-21T13:34:36;26.10;;;23.60;;
20044;SDS011;10183;47.808;9.476;2023-11-21T13:37:23;25.47;;;22.97;;
20044;SDS011;10183;47.808;9.476;2023-11-21T13:40:11;21.50;;;19.40;;
20044;SDS011;10183;47.808;9.476;2023-11-21T13:43:00;24.47;;;22.27;;
20044;SDS011;10183;47.808;9.476;2023-11-21T13:45:49;24.60;;;22.40;;
20044;SDS011;10183;47.808;9.476;2023-11-21T13:48:41;23.30;;;21.20;;
20044;SDS011;10183;47.808;9.476;2023-11-21T13:51:28;21.47;;;19.47;;
20044;SDS011;10183;47.808;9.476;2023-11-21T13:54:24;21.10;;;19.10;;
20044;SDS011;10183;47.808;9.476;2023-11-21T13:57:10;20.17;;;18.27;;
20044;SDS011;10183;47.808;9.476;2023-11-21T13:59:56;19.97;;;18.17;;
20044;SDS011;10183;47.808;9.476;2023-11-21T14:02:44;19.27;;;17.47;;
20044;SDS011;10183;47.808;9.476;2023-11-21T14:05:30;19.13;;;17.33;;
20044;SDS011;10183;47.808;9.476;2023-11-21T14:08:19;19.80;;;18.00;;
20044;SDS011;10183;47.808;9.476;2023-11-21T14:11:07;18.67;;;16.87;;
20044;SDS011;10183;47.808;9.476;2023-11-21T14:13:53;19.13;;;17.43;;
20044;SDS011;10183;47.808;9.476;2023-11-21T14:16:39;18.20;;;16.70;;
20044;SDS011;10183;47.808;9.476;2023-11-21T14:19:25;17.97;;;16.57;;
20044;SDS011;10183;47.808;9.476;2023-11-21T14:22:17;16.70;;;15.40;;
20044;SDS011;10183;47.808;9.476;2023-11-21T14:25:04;17.70;;;16.40;;
20044;SDS011;10183;47.808;9.476;2023-11-21T14:27:50;16.73;;;15.43;;
20044;SDS011;10183;47.808;9.476;2023-11-21T14:30:36;16.90;;;15.60;;
20044;SDS011;10183;47.808;9.476;2023-11-21T14:33:24;17.23;;;15.83;;
20044;SDS011;10183;47.808;9.476;2023-11-21T14:36:10;17.87;;;16.57;;
20044;SDS011;10183;47.808;9.476;2023-11-21T14:38:56;17.50;;;16.10;;
20044;SDS011;10183;47.808;9.476;2023-11-21T14:41:42;15.63;;;14.37;;
20044;SDS011;10183;47.808;9.476;2023-11-21T14:44:29;18.40;;;17.00;;
20044;SDS011;10183;47.808;9.476;2023-11-21T14:47:20;16.20;;;14.90;;
20044;SDS011;10183;47.808;9.476;2023-11-21T14:50:12;17.07;;;15.67;;
20044;SDS011;10183;47.808;9.476;2023-11-21T14:53:21;17.03;;;15.60;;
20044;SDS011;10183;47.808;9.476;2023-11-21T14:56:27;17.40;;;15.97;;
20044;SDS011;10183;47.808;9.476;2023-11-21T14:59:16;18.33;;;16.93;;
20044;SDS011;10183;47.808;9.476;2023-11-21T15:02:02;18.43;;;16.93;;
20044;SDS011;10183;47.808;9.476;2023-11-21T15:05:01;17.67;;;16.17;;
20044;SDS011;10183;47.808;9.476;2023-11-21T15:07:48;17.53;;;16.03;;
20044;SDS011;10183;47.808;9.476;2023-11-21T15:10:35;19.43;;;17.73;;
20044;SDS011;10183;47.808;9.476;2023-11-21T15:13:31;18.17;;;16.70;;
20044;SDS011;10183;47.808;9.476;2023-11-21T15:16:17;17.73;;;16.43;;
20044;SDS011;10183;47.808;9.476;2023-11-21T15:19:04;18.47;;;17.27;;
20044;SDS011;10183;47.808;9.476;2023-11-21T15:21:50;19.57;;;18.57;;
20044;SDS011;10183;47.808;9.476;2023-11-21T15:24:37;19.60;;;18.57;;
20044;SDS011;10183;47.808;9.476;2023-11-21T15:27:23;19.67;;;18.57;;
20044;SDS011;10183;47.808;9.476;2023-11-21T15:30:09;20.70;;;19.60;;
20044;SDS011;10183;47.808;9.476;2023-11-21T15:32:55;22.30;;;21.10;;
20044;SDS011;10183;47.808;9.476;2023-11-21T15:35:41;21.80;;;20.70;;
20044;SDS011;10183;47.808;9.476;2023-11-21T15:38:28;20.63;;;19.33;;
20044;SDS011;10183;47.808;9.476;2023-11-21T15:41:14;20.17;;;18.97;;
20044;SDS011;10183;47.808;9.476;2023-11-21T15:44:00;18.03;;;17.13;;
20044;SDS011;10183;47.808;9.476;2023-11-21T15:46:46;12.13;;;11.53;;
20044;SDS011;10183;47.808;9.476;2023-11-21T15:49:33;12.07;;;11.47;;
20044;SDS011;10183;47.808;9.476;2023-11-21T15:52:22;13.83;;;13.13;;
20044;SDS011;10183;47.808;9.476;2023-11-21T15:55:08;11.60;;;11.00;;
20044;SDS011;10183;47.808;9.476;2023-11-21T15:57:54;13.00;;;12.30;;
20044;SDS011;10183;47.808;9.476;2023-11-21T16:00:40;15.30;;;14.40;;
20044;SDS011;10183;47.808;9.476;2023-11-21T16:03:27;11.40;;;10.80;;
20044;SDS011;10183;47.808;9.476;2023-11-21T16:06:13;11.50;;;10.90;;
20044;SDS011;10183;47.808;9.476;2023-11-21T16:09:00;12.80;;;12.00;;
20044;SDS011;10183;47.808;9.476;2023-11-21T16:11:46;12.93;;;12.13;;
20044;SDS011;10183;47.808;9.476;2023-11-21T16:14:34;12.20;;;11.40;;
20044;SDS011;10183;47.808;9.476;2023-11-21T16:17:24;11.80;;;11.10;;
20044;SDS011;10183;47.808;9.476;2023-11-21T16:20:10;12.67;;;11.87;;
20044;SDS011;10183;47.808;9.476;2023-11-21T16:22:58;12.43;;;11.73;;
20044;SDS011;10183;47.808;9.476;2023-11-21T16:25:43;11.90;;;11.20;;
20044;SDS011;10183;47.808;9.476;2023-11-21T16:28:29;12.00;;;11.30;;
20044;SDS011;10183;47.808;9.476;2023-11-21T16:31:22;11.87;;;11.17;;
20044;SDS011;10183;47.808;9.476;2023-11-21T16:34:12;11.50;;;10.80;;